Time;durP1;ratioP1;P1;durP2;ratioP2;P2;SDS_P1;SDS_P2;PMS_P1;PMS_P2;Temp;Humidity;BMP_temperature;BMP_pressure;BME280_temperature;BME280_humidity;BME280_pressure;Samples;Min_cycle;Max_cycle;Signal;HPM_P1;HPM_P2
2022/05/05 00:01:28;;;;;;;8.23;4.73;;;;;;;;;;4960221;28;20226;-75
2022/05/05 00:03:54;;;;;;;7.07;4.50;;;;;;;;;;4947456;28;20289;-74
2022/05/05 00:06:19;;;;;;;7.70;4.70;;;;;;;;;;4959064;28;20209;-74
2022/05/05 00:08:49;;;;;;;9.10;4.67;;;;;;;;;;4975858;28;20226;-74
2022/05/05 00:16:47;;;;;;;8.83;5.37;;;;;;;;;;4968363;28;20222;-75
2022/05/05 00:19:18;;;;;;;5.87;5.10;;;;;;;;;;4953415;28;20248;-76
2022/05/05 00:21:45;;;;;;;12.10;5.80;;;;;;;;;;4943601;28;20240;-75
2022/05/05 00:24:16;;;;;;;6.97;5.10;;;;;;;;;;4954564;28;20467;-74
2022/05/05 00:26:44;;;;;;;8.20;5.20;;;;;;;;;;4941292;28;20230;-75
2022/05/05 00:29:09;;;;;;;9.23;5.20;;;;;;;;;;4955364;28;20222;-75
2022/05/05 00:31:40;;;;;;;6.83;5.33;;;;;;;;;;4973241;28;20329;-74
2022/05/05 00:34:08;;;;;;;7.80;5.30;;;;;;;;;;4939867;28;20256;-75
2022/05/05 00:36:33;;;;;;;8.87;5.40;;;;;;;;;;4956034;28;20218;-75
2022/05/05 00:39:01;;;;;;;6.67;5.07;;;;;;;;;;4970995;28;20335;-75
2022/05/05 00:41:26;;;;;;;10.20;5.37;;;;;;;;;;4971887;28;20225;-75
2022/05/05 00:43:54;;;;;;;9.80;5.03;;;;;;;;;;4964004;28;20718;-74
2022/05/05 00:46:22;;;;;;;6.87;5.13;;;;;;;;;;4958296;28;20229;-75
2022/05/05 00:48:47;;;;;;;8.70;5.27;;;;;;;;;;4964505;28;20230;-75
2022/05/05 00:51:13;;;;;;;9.37;5.13;;;;;;;;;;4955638;28;20220;-75
2022/05/05 00:53:41;;;;;;;8.07;5.00;;;;;;;;;;4971013;28;20614;-75
2022/05/05 00:56:08;;;;;;;5.37;4.83;;;;;;;;;;4953994;28;20222;-76
2022/05/05 00:58:34;;;;;;;7.30;4.90;;;;;;;;;;4971252;28;20229;-74
2022/05/05 01:01:04;;;;;;;9.63;4.80;;;;;;;;;;4955679;28;20226;-74
2022/05/05 01:03:34;;;;;;;6.90;5.07;;;;;;;;;;4942460;28;20229;-74
2022/05/05 01:06:02;;;;;;;6.63;5.23;;;;;;;;;;4937954;28;20232;-75
2022/05/05 01:08:27;;;;;;;6.90;5.20;;;;;;;;;;4973999;28;20536;-74
2022/05/05 01:10:53;;;;;;;8.80;5.13;;;;;;;;;;4974692;28;20307;-74
2022/05/05 01:13:18;;;;;;;6.37;4.90;;;;;;;;;;4946075;28;20218;-74
2022/05/05 01:15:46;;;;;;;8.53;6.07;;;;;;;;;;4954181;28;20767;-74
2022/05/05 01:18:14;;;;;;;7.93;5.70;;;;;;;;;;4956334;28;20238;-73
2022/05/05 01:20:44;;;;;;;7.87;5.40;;;;;;;;;;4984335;28;20218;-75
2022/05/05 01:23:13;;;;;;;9.30;5.53;;;;;;;;;;4928078;28;20324;-77
2022/05/05 01:28:23;;;;;;;9.60;6.37;;;;;;;;;;4958809;28;20240;-75
2022/05/05 01:30:55;;;;;;;11.17;6.30;;;;;;;;;;4960510;28;20248;-75
2022/05/05 01:33:22;;;;;;;10.30;6.70;;;;;;;;;;4945771;28;20218;-75
2022/05/05 01:35:55;;;;;;;7.87;5.90;;;;;;;;;;4958553;28;20249;-74
2022/05/05 01:38:24;;;;;;;6.97;6.27;;;;;;;;;;4952342;28;20276;-74
2022/05/05 01:40:50;;;;;;;6.20;5.60;;;;;;;;;;4973113;28;20277;-74
2022/05/05 01:43:19;;;;;;;8.70;6.17;;;;;;;;;;4956877;28;20715;-74
2022/05/05 01:45:44;;;;;;;8.83;5.97;;;;;;;;;;4954065;28;20746;-74
2022/05/05 01:48:12;;;;;;;8.87;6.20;;;;;;;;;;4953433;28;20301;-74
2022/05/05 01:50:40;;;;;;;8.10;5.90;;;;;;;;;;4947797;28;20226;-74
2022/05/05 01:53:06;;;;;;;9.57;5.90;;;;;;;;;;4958908;28;20352;-75
2022/05/05 01:55:34;;;;;;;7.57;5.73;;;;;;;;;;4952632;28;20222;-74
2022/05/05 01:58:03;;;;;;;12.07;5.83;;;;;;;;;;4956320;28;20229;-75
2022/05/05 02:00:31;;;;;;;7.87;5.63;;;;;;;;;;4951352;28;20232;-75
2022/05/05 02:02:57;;;;;;;6.57;5.67;;;;;;;;;;4962142;28;20723;-75
2022/05/05 02:05:22;;;;;;;7.97;5.53;;;;;;;;;;4972286;28;20229;-74
2022/05/05 02:07:48;;;;;;;8.80;6.03;;;;;;;;;;4966123;28;20324;-75
2022/05/05 02:10:14;;;;;;;7.13;5.87;;;;;;;;;;4965315;28;20306;-75
2022/05/05 02:12:43;;;;;;;7.67;6.00;;;;;;;;;;4925052;28;20225;-75
2022/05/05 02:15:10;;;;;;;7.00;5.47;;;;;;;;;;4922554;28;20237;-74
2022/05/05 02:17:36;;;;;;;8.93;6.27;;;;;;;;;;4969641;28;20228;-75
2022/05/05 02:20:05;;;;;;;8.10;6.23;;;;;;;;;;4941168;28;20225;-74
2022/05/05 02:22:30;;;;;;;12.83;6.30;;;;;;;;;;4969208;28;20790;-75
2022/05/05 02:24:58;;;;;;;6.97;5.73;;;;;;;;;;4954554;28;20225;-75
2022/05/05 02:27:24;;;;;;;9.27;6.10;;;;;;;;;;4969005;28;20229;-75
2022/05/05 02:29:50;;;;;;;9.27;6.33;;;;;;;;;;4962926;28;20248;-75
2022/05/05 02:32:18;;;;;;;9.47;6.40;;;;;;;;;;4955750;28;20241;-75
2022/05/05 02:34:44;;;;;;;7.47;5.93;;;;;;;;;;4957513;28;20225;-75
2022/05/05 02:39:53;;;;;;;7.33;6.63;;;;;;;;;;4965740;28;20591;-75
2022/05/05 02:42:20;;;;;;;9.27;6.73;;;;;;;;;;4970765;28;20229;-75
2022/05/05 02:44:47;;;;;;;7.83;6.67;;;;;;;;;;4938436;28;20226;-75
2022/05/05 02:47:13;;;;;;;8.03;6.70;;;;;;;;;;4954310;28;20272;-75
2022/05/05 02:49:38;;;;;;;8.27;6.90;;;;;;;;;;4972824;28;20612;-75
2022/05/05 02:52:07;;;;;;;10.97;7.03;;;;;;;;;;4943567;28;20229;-73
2022/05/05 02:54:47;;;;;;;10.07;6.90;;;;;;;;;;4966942;28;20237;-73
2022/05/05 02:57:14;;;;;;;9.30;6.63;;;;;;;;;;4980388;28;20614;-75
2022/05/05 02:59:41;;;;;;;7.97;7.13;;;;;;;;;;4964353;28;20273;-74
2022/05/05 03:02:07;;;;;;;9.83;7.43;;;;;;;;;;4963540;28;20249;-75
2022/05/05 03:04:33;;;;;;;9.13;7.87;;;;;;;;;;4956305;28;20304;-75
2022/05/05 03:06:58;;;;;;;9.10;7.67;;;;;;;;;;4941406;28;20309;-74
2022/05/05 03:09:24;;;;;;;8.23;7.30;;;;;;;;;;4965824;28;20237;-75
2022/05/05 03:11:49;;;;;;;8.50;7.17;;;;;;;;;;4955730;28;20218;-75
2022/05/05 03:14:18;;;;;;;7.10;6.47;;;;;;;;;;4958855;28;20755;-75
2022/05/05 03:16:46;;;;;;;10.87;7.17;;;;;;;;;;4973420;28;20233;-74
2022/05/05 03:19:11;;;;;;;10.10;7.50;;;;;;;;;;4950269;28;20676;-74
2022/05/05 03:21:39;;;;;;;10.90;6.70;;;;;;;;;;4988172;28;20308;-74
2022/05/05 03:24:05;;;;;;;8.43;7.07;;;;;;;;;;4959384;28;20232;-74
2022/05/05 03:26:33;;;;;;;8.90;7.30;;;;;;;;;;4946081;28;20217;-74
2022/05/05 03:29:01;;;;;;;9.10;7.63;;;;;;;;;;4968519;28;20651;-73
2022/05/05 03:31:29;;;;;;;9.60;7.70;;;;;;;;;;4966286;28;20723;-73
2022/05/05 03:33:57;;;;;;;8.80;7.30;;;;;;;;;;4972410;28;20237;-73
2022/05/05 03:36:23;;;;;;;9.87;7.57;;;;;;;;;;4969862;28;20345;-74
2022/05/05 03:38:54;;;;;;;9.33;7.80;;;;;;;;;;4970444;28;20313;-73
2022/05/05 03:41:20;;;;;;;10.50;7.33;;;;;;;;;;4943558;28;20218;-74
2022/05/05 03:43:45;;;;;;;8.87;7.23;;;;;;;;;;4987157;28;20238;-74
2022/05/05 03:46:10;;;;;;;9.13;7.47;;;;;;;;;;4970925;28;20229;-76
2022/05/05 03:48:38;;;;;;;12.40;8.07;;;;;;;;;;4971871;28;20221;-75
2022/05/05 03:51:04;;;;;;;11.40;8.30;;;;;;;;;;4954363;28;20313;-74
2022/05/05 03:53:34;;;;;;;9.60;7.97;;;;;;;;;;4957566;28;20301;-74
2022/05/05 03:56:04;;;;;;;8.40;7.60;;;;;;;;;;4956803;28;20229;-74
2022/05/05 03:58:31;;;;;;;12.00;7.60;;;;;;;;;;4978082;28;20214;-75
2022/05/05 04:00:59;;;;;;;8.43;7.53;;;;;;;;;;4957046;28;20308;-73
2022/05/05 04:03:31;;;;;;;8.87;7.57;;;;;;;;;;4986181;28;20595;-74
2022/05/05 04:06:06;;;;;;;8.70;7.30;;;;;;;;;;4971306;28;20221;-74
2022/05/05 04:08:32;;;;;;;8.23;6.87;;;;;;;;;;4965082;28;20232;-74
2022/05/05 04:11:00;;;;;;;8.20;6.60;;;;;;;;;;4956680;28;20236;-74
2022/05/05 04:13:28;;;;;;;9.40;7.17;;;;;;;;;;4949054;28;20244;-74
2022/05/05 04:15:56;;;;;;;9.27;6.90;;;;;;;;;;4956000;28;20309;-74
2022/05/05 04:18:21;;;;;;;10.00;7.80;;;;;;;;;;4950183;28;20815;-75
2022/05/05 04:20:49;;;;;;;7.50;6.90;;;;;;;;;;4979576;28;20312;-74
2022/05/05 04:23:17;;;;;;;10.43;7.67;;;;;;;;;;4955161;28;20365;-74
2022/05/05 04:25:45;;;;;;;8.20;7.10;;;;;;;;;;4972399;28;20221;-75
2022/05/05 04:28:12;;;;;;;9.70;6.93;;;;;;;;;;4950473;28;20214;-75
2022/05/05 04:30:39;;;;;;;8.10;7.03;;;;;;;;;;4967537;28;20602;-76
2022/05/05 04:33:08;;;;;;;8.40;6.90;;;;;;;;;;4945628;28;20226;-75
2022/05/05 04:35:36;;;;;;;7.73;6.60;;;;;;;;;;4944131;28;20238;-75
2022/05/05 04:38:03;;;;;;;10.30;7.37;;;;;;;;;;4956937;28;20245;-76
2022/05/05 04:40:31;;;;;;;9.83;6.80;;;;;;;;;;4941183;28;20221;-75
2022/05/05 04:42:57;;;;;;;9.00;6.87;;;;;;;;;;4949508;28;20726;-75
2022/05/05 04:45:22;;;;;;;9.17;6.87;;;;;;;;;;4942796;28;20300;-76
2022/05/05 04:47:47;;;;;;;7.97;6.93;;;;;;;;;;4958780;28;20234;-75
2022/05/05 04:50:15;;;;;;;8.17;6.67;;;;;;;;;;4958341;28;20691;-75
2022/05/05 04:52:44;;;;;;;7.60;6.80;;;;;;;;;;4970433;28;20234;-75
2022/05/05 04:55:09;;;;;;;9.47;6.77;;;;;;;;;;4964756;28;20711;-74
2022/05/05 04:57:36;;;;;;;7.00;6.30;;;;;;;;;;4970345;28;20225;-75
2022/05/05 05:00:03;;;;;;;7.13;6.40;;;;;;;;;;4970811;28;20683;-74
2022/05/05 05:02:31;;;;;;;9.23;6.90;;;;;;;;;;4960905;28;20234;-75
2022/05/05 05:04:57;;;;;;;7.00;6.27;;;;;;;;;;4983447;28;20229;-74
2022/05/05 05:07:24;;;;;;;7.23;6.43;;;;;;;;;;4965943;28;20688;-74
2022/05/05 05:09:50;;;;;;;7.33;6.47;;;;;;;;;;4975152;28;20226;-74
2022/05/05 05:12:15;;;;;;;7.33;6.13;;;;;;;;;;4953490;28;20225;-74
2022/05/05 05:14:41;;;;;;;6.83;5.90;;;;;;;;;;4974118;28;20230;-74
2022/05/05 05:17:06;;;;;;;7.03;6.30;;;;;;;;;;4973452;28;20722;-75
2022/05/05 05:19:34;;;;;;;8.13;7.27;;;;;;;;;;4942399;28;20248;-74
2022/05/05 05:22:05;;;;;;;8.33;7.50;;;;;;;;;;4982830;28;20252;-76
2022/05/05 05:24:33;;;;;;;7.93;6.70;;;;;;;;;;4971819;28;20640;-75
2022/05/05 05:27:01;;;;;;;7.20;6.30;;;;;;;;;;4971961;28;20301;-75
2022/05/05 05:29:26;;;;;;;7.37;6.50;;;;;;;;;;4955063;28;20674;-76
2022/05/05 05:31:51;;;;;;;7.63;6.20;;;;;;;;;;4958982;28;20250;-74
2022/05/05 05:34:17;;;;;;;8.37;6.50;;;;;;;;;;4956644;28;20236;-75
2022/05/05 05:37:03;;;;;;;9.37;6.17;;;;;;;;;;4959520;28;20226;-74
2022/05/05 05:39:33;;;;;;;9.57;6.07;;;;;;;;;;4973424;28;20222;-75
2022/05/05 05:41:59;;;;;;;8.37;6.77;;;;;;;;;;4967973;28;20229;-74
2022/05/05 05:44:24;;;;;;;7.83;6.60;;;;;;;;;;4936792;28;20647;-75
2022/05/05 05:46:50;;;;;;;8.40;6.60;;;;;;;;;;4980369;28;20269;-75
2022/05/05 05:49:15;;;;;;;8.57;6.60;;;;;;;;;;4953228;28;20220;-76
2022/05/05 05:51:43;;;;;;;8.50;6.40;;;;;;;;;;4955824;28;20248;-75
2022/05/05 05:54:12;;;;;;;7.77;6.27;;;;;;;;;;4968874;28;20230;-74
2022/05/05 05:56:38;;;;;;;8.13;5.77;;;;;;;;;;4966161;28;20217;-74
2022/05/05 05:59:04;;;;;;;8.57;5.80;;;;;;;;;;4954466;28;20218;-75
2022/05/05 06:04:20;;;;;;;5.80;4.60;;;;;;;;;;4975420;28;20288;-75
2022/05/05 06:06:46;;;;;;;7.73;4.33;;;;;;;;;;4955790;28;20708;-75
2022/05/05 06:09:12;;;;;;;5.77;4.17;;;;;;;;;;4970137;28;20240;-74
2022/05/05 06:11:37;;;;;;;8.07;3.73;;;;;;;;;;4968597;28;20233;-76
2022/05/05 06:14:04;;;;;;;6.40;3.73;;;;;;;;;;4955749;28;20645;-74
2022/05/05 06:16:32;;;;;;;5.07;3.20;;;;;;;;;;4979686;28;20218;-74
2022/05/05 06:18:57;;;;;;;5.30;3.30;;;;;;;;;;4953225;28;20325;-76
2022/05/05 06:21:23;;;;;;;6.80;3.43;;;;;;;;;;4941246;28;20222;-74
2022/05/05 06:23:53;;;;;;;3.90;3.20;;;;;;;;;;4958812;28;20308;-75
2022/05/05 06:26:18;;;;;;;4.23;2.90;;;;;;;;;;4969984;28;20217;-75
2022/05/05 06:28:47;;;;;;;6.13;2.97;;;;;;;;;;4970768;28;20240;-74
2022/05/05 06:31:13;;;;;;;5.53;2.40;;;;;;;;;;4961721;28;20217;-75
2022/05/05 06:33:40;;;;;;;5.03;2.03;;;;;;;;;;4983984;28;20599;-74
2022/05/05 06:36:08;;;;;;;2.73;2.20;;;;;;;;;;4946761;28;20740;-77
2022/05/05 06:38:36;;;;;;;5.97;2.63;;;;;;;;;;4983607;28;20214;-75
2022/05/05 06:41:02;;;;;;;3.90;1.87;;;;;;;;;;4950348;28;20228;-74
2022/05/05 06:43:30;;;;;;;5.03;2.20;;;;;;;;;;4946761;28;20682;-75
2022/05/05 06:45:55;;;;;;;5.47;2.07;;;;;;;;;;4983560;28;20276;-75
2022/05/05 06:48:23;;;;;;;5.17;2.10;;;;;;;;;;4947831;28;20233;-74
2022/05/05 06:50:56;;;;;;;4.83;2.10;;;;;;;;;;4970382;28;20312;-75
2022/05/05 06:53:21;;;;;;;5.23;1.83;;;;;;;;;;4939098;28;20225;-75
2022/05/05 06:55:49;;;;;;;4.27;1.60;;;;;;;;;;4991895;28;20228;-76
2022/05/05 06:58:15;;;;;;;5.83;1.90;;;;;;;;;;4936581;28;20217;-76
2022/05/05 07:03:24;;;;;;;5.20;2.43;;;;;;;;;;4985946;28;20235;-74
2022/05/05 07:05:52;;;;;;;5.43;2.33;;;;;;;;;;4957153;28;20225;-76
2022/05/05 07:08:18;;;;;;;4.27;2.53;;;;;;;;;;4959091;28;20229;-75
2022/05/05 07:10:52;;;;;;;4.23;2.30;;;;;;;;;;4959026;28;20229;-75
2022/05/05 07:13:24;;;;;;;5.57;2.50;;;;;;;;;;4958127;28;20805;-74
2022/05/05 07:15:50;;;;;;;4.37;2.50;;;;;;;;;;4972868;28;20237;-74
2022/05/05 07:18:15;;;;;;;3.17;2.27;;;;;;;;;;4970922;28;20228;-75
2022/05/05 07:20:41;;;;;;;4.20;2.20;;;;;;;;;;4960797;28;20249;-74
2022/05/05 07:23:12;;;;;;;4.33;2.40;;;;;;;;;;4972194;28;20399;-74
2022/05/05 07:25:40;;;;;;;3.97;1.70;;;;;;;;;;4925596;28;20721;-76
2022/05/05 07:28:08;;;;;;;4.17;1.90;;;;;;;;;;4939202;28;20248;-74
2022/05/05 07:30:36;;;;;;;5.87;1.97;;;;;;;;;;4958360;28;20226;-74
2022/05/05 07:33:02;;;;;;;3.37;1.80;;;;;;;;;;4933738;28;20301;-75
2022/05/05 07:35:27;;;;;;;4.50;1.83;;;;;;;;;;4967963;28;20726;-76
2022/05/05 07:38:00;;;;;;;4.50;1.57;;;;;;;;;;4955357;28;20301;-76
2022/05/05 07:40:26;;;;;;;5.10;1.60;;;;;;;;;;4978821;28;20313;-74
2022/05/05 07:42:51;;;;;;;4.53;1.40;;;;;;;;;;4982653;28;20237;-76
2022/05/05 07:45:18;;;;;;;3.97;1.50;;;;;;;;;;4959350;28;20214;-75
2022/05/05 07:47:43;;;;;;;3.87;1.50;;;;;;;;;;4965701;28;20306;-75
2022/05/05 07:50:11;;;;;;;3.80;1.43;;;;;;;;;;4948536;28;20214;-76
2022/05/05 07:52:36;;;;;;;5.77;1.83;;;;;;;;;;4966989;28;20661;-74
2022/05/05 07:55:12;;;;;;;3.20;1.43;;;;;;;;;;4959773;28;20232;-75
2022/05/05 07:57:46;;;;;;;2.43;1.30;;;;;;;;;;4936873;28;20308;-75
2022/05/05 08:00:14;;;;;;;2.97;1.67;;;;;;;;;;4956473;28;20213;-75
2022/05/05 08:02:42;;;;;;;2.20;1.20;;;;;;;;;;4954846;28;20214;-75
2022/05/05 08:05:11;;;;;;;4.17;1.50;;;;;;;;;;4985277;28;20229;-75
2022/05/05 08:07:40;;;;;;;6.03;1.40;;;;;;;;;;4974686;28;20718;-74
2022/05/05 08:10:06;;;;;;;2.60;1.20;;;;;;;;;;4956525;28;20706;-75
2022/05/05 08:12:31;;;;;;;4.63;1.50;;;;;;;;;;4962880;28;20225;-75
2022/05/05 08:14:57;;;;;;;5.67;1.37;;;;;;;;;;4966405;28;20608;-76
2022/05/05 08:17:28;;;;;;;3.80;1.63;;;;;;;;;;4966595;28;20317;-76
2022/05/05 08:19:53;;;;;;;5.10;1.73;;;;;;;;;;4972851;28;20312;-76
2022/05/05 08:22:21;;;;;;;3.80;1.40;;;;;;;;;;4955963;28;20230;-74
2022/05/05 08:30:16;;;;;;;4.87;1.40;;;;;;;;;;4974926;28;20240;-75
2022/05/05 08:32:42;;;;;;;4.93;1.80;;;;;;;;;;4975286;28;20299;-76
2022/05/05 08:35:07;;;;;;;4.10;1.60;;;;;;;;;;4977768;28;20699;-76
2022/05/05 08:37:33;;;;;;;3.10;1.40;;;;;;;;;;4947987;28;21158;-75
2022/05/05 08:40:01;;;;;;;2.57;1.50;;;;;;;;;;4941338;28;20741;-76
2022/05/05 08:42:29;;;;;;;3.23;1.40;;;;;;;;;;4949501;28;20604;-76
2022/05/05 08:44:55;;;;;;;2.90;1.60;;;;;;;;;;4950758;28;20229;-75
2022/05/05 08:47:24;;;;;;;2.83;1.50;;;;;;;;;;4959046;28;20247;-75
2022/05/05 08:49:54;;;;;;;2.57;1.50;;;;;;;;;;4950429;28;20233;-75
2022/05/05 08:52:22;;;;;;;3.83;1.50;;;;;;;;;;4947102;28;20226;-73
2022/05/05 08:54:50;;;;;;;6.50;1.50;;;;;;;;;;4946826;28;20658;-74
2022/05/05 08:57:15;;;;;;;4.70;1.50;;;;;;;;;;4966590;28;20762;-75
2022/05/05 08:59:46;;;;;;;3.43;1.70;;;;;;;;;;4970071;28;20226;-74
2022/05/05 09:02:13;;;;;;;1.70;1.13;;;;;;;;;;4982483;28;20637;-74
2022/05/05 09:04:47;;;;;;;2.53;1.20;;;;;;;;;;4987730;28;20254;-75
2022/05/05 09:07:12;;;;;;;2.20;1.43;;;;;;;;;;4950548;28;20710;-75
2022/05/05 09:09:38;;;;;;;4.13;1.30;;;;;;;;;;4982191;28;20229;-74
2022/05/05 09:12:23;;;;;;;3.33;1.37;;;;;;;;;;4982775;28;20230;-75
2022/05/05 09:14:53;;;;;;;3.67;1.57;;;;;;;;;;4951358;28;20222;-76
2022/05/05 09:17:28;;;;;;;3.57;1.27;;;;;;;;;;4972042;28;20276;-75
2022/05/05 09:19:57;;;;;;;1.80;1.30;;;;;;;;;;4972414;28;20778;-75
2022/05/05 09:22:24;;;;;;;1.92;1.40;;;;;;;;;;4969708;28;20226;-73
2022/05/05 09:24:51;;;;;;;2.13;1.15;;;;;;;;;;4956834;28;20241;-73
2022/05/05 09:27:28;;;;;;;4.33;1.70;;;;;;;;;;4957934;28;20214;-74
2022/05/05 09:29:55;;;;;;;3.57;1.50;;;;;;;;;;4973638;28;20225;-74
2022/05/05 09:32:21;;;;;;;3.10;1.53;;;;;;;;;;4968989;28;20226;-74
2022/05/05 09:34:46;;;;;;;4.53;1.33;;;;;;;;;;4966730;28;20238;-74
2022/05/05 09:37:20;;;;;;;4.15;1.20;;;;;;;;;;4981575;28;20279;-75
2022/05/05 09:39:46;;;;;;;3.35;1.33;;;;;;;;;;4926502;28;20218;-75
2022/05/05 09:42:14;;;;;;;3.95;1.40;;;;;;;;;;4950409;28;20265;-75
2022/05/05 09:44:47;;;;;;;3.58;1.33;;;;;;;;;;4945430;28;20232;-74
2022/05/05 09:47:19;;;;;;;2.42;1.45;;;;;;;;;;4982366;28;20221;-75
2022/05/05 09:49:57;;;;;;;3.42;1.48;;;;;;;;;;4957728;28;20283;-75
2022/05/05 09:57:53;;;;;;;3.15;1.50;;;;;;;;;;4954236;28;20704;-75
2022/05/05 10:05:46;;;;;;;2.85;1.40;;;;;;;;;;4944800;28;20579;-76
2022/05/05 10:08:14;;;;;;;3.40;1.65;;;;;;;;;;4953234;28;20228;-74
2022/05/05 10:10:40;;;;;;;2.25;1.15;;;;;;;;;;4957596;28;20225;-76
2022/05/05 10:13:07;;;;;;;1.88;1.40;;;;;;;;;;4970127;28;20230;-75
2022/05/05 10:15:35;;;;;;;3.95;1.30;;;;;;;;;;4967569;28;20595;-75
2022/05/05 10:18:03;;;;;;;3.80;1.40;;;;;;;;;;4955484;28;20248;-75
2022/05/05 10:20:30;;;;;;;2.17;1.20;;;;;;;;;;4966583;28;20218;-75
2022/05/05 10:23:02;;;;;;;3.88;1.20;;;;;;;;;;4955846;28;20254;-75
2022/05/05 10:25:27;;;;;;;3.22;1.30;;;;;;;;;;4954562;28;20222;-75
2022/05/05 10:27:59;;;;;;;3.00;1.00;;;;;;;;;;4927711;28;20297;-75
2022/05/05 10:30:34;;;;;;;2.10;1.40;;;;;;;;;;4977522;28;20229;-75
2022/05/05 10:33:01;;;;;;;2.50;1.38;;;;;;;;;;4958017;28;20661;-75
2022/05/05 10:35:38;;;;;;;3.15;1.30;;;;;;;;;;4963307;28;20321;-75
2022/05/05 10:38:03;;;;;;;2.72;1.27;;;;;;;;;;4945415;28;20221;-76
2022/05/05 10:40:44;;;;;;;1.40;1.20;;;;;;;;;;4955322;28;20229;-76
2022/05/05 10:43:12;;;;;;;2.22;1.15;;;;;;;;;;4956083;28;20229;-75
2022/05/05 10:45:42;;;;;;;2.03;1.23;;;;;;;;;;4957060;28;20217;-76
2022/05/05 10:48:12;;;;;;;2.40;1.33;;;;;;;;;;4985223;28;20656;-75
2022/05/05 10:50:54;;;;;;;1.75;1.00;;;;;;;;;;4943497;28;20225;-75
2022/05/05 10:53:26;;;;;;;4.03;1.13;;;;;;;;;;4933570;28;20236;-75
2022/05/05 10:55:52;;;;;;;2.10;1.30;;;;;;;;;;4973105;28;20306;-75
2022/05/05 10:58:58;;;;;;;2.13;1.13;;;;;;;;;;4955315;28;20226;-76
2022/05/05 11:01:31;;;;;;;2.50;1.20;;;;;;;;;;4961605;28;20289;-76
2022/05/05 11:04:11;;;;;;;2.45;1.10;;;;;;;;;;4972389;28;20237;-75
2022/05/05 11:06:38;;;;;;;1.83;1.05;;;;;;;;;;4983319;28;20225;-75
2022/05/05 11:09:06;;;;;;;2.92;1.40;;;;;;;;;;4961300;28;20760;-76
2022/05/05 11:11:41;;;;;;;3.03;1.13;;;;;;;;;;4947931;28;20284;-75
2022/05/05 11:22:49;;;;;;;2.72;1.23;;;;;;;;;;4974958;28;20716;-76
2022/05/05 11:25:18;;;;;;;3.30;1.20;;;;;;;;;;4972056;28;20226;-76
2022/05/05 11:27:43;;;;;;;2.08;1.30;;;;;;;;;;4924818;28;20601;-75
2022/05/05 11:30:12;;;;;;;3.40;1.27;;;;;;;;;;4967460;28;20218;-77
2022/05/05 11:32:43;;;;;;;2.92;1.35;;;;;;;;;;4974819;28;20229;-75
2022/05/05 11:35:10;;;;;;;3.85;1.15;;;;;;;;;;4968004;28;20225;-76
2022/05/05 11:37:38;;;;;;;4.32;1.40;;;;;;;;;;4976294;28;20256;-76
2022/05/05 11:40:05;;;;;;;2.28;1.38;;;;;;;;;;4962034;28;20668;-76
2022/05/05 11:44:14;;;;;;;1.77;1.13;;;;;;;;;;4951428;28;20234;-75
2022/05/05 11:45:19;;;;;;;3.22;1.27;;;;;;;;;;4989216;28;20253;-74
2022/05/05 11:47:45;;;;;;;3.38;1.35;;;;;;;;;;4961993;28;20495;-75
2022/05/05 11:50:13;;;;;;;2.88;1.48;;;;;;;;;;4958307;28;20252;-76
2022/05/05 11:52:42;;;;;;;2.75;1.40;;;;;;;;;;4972227;28;20287;-74
2022/05/05 11:55:08;;;;;;;2.17;1.38;;;;;;;;;;4981734;28;20226;-75
2022/05/05 11:57:34;;;;;;;2.47;1.23;;;;;;;;;;4957244;28;20236;-75
2022/05/05 12:02:43;;;;;;;1.77;1.10;;;;;;;;;;4961167;28;20234;-75
2022/05/05 12:05:11;;;;;;;1.42;1.30;;;;;;;;;;4925061;28;20234;-75
2022/05/05 12:07:37;;;;;;;1.77;1.42;;;;;;;;;;4945839;28;20583;-75
2022/05/05 12:10:08;;;;;;;4.13;1.38;;;;;;;;;;4957471;28;20233;-76
2022/05/05 12:12:38;;;;;;;2.50;1.48;;;;;;;;;;4972884;28;20252;-74
2022/05/05 12:15:06;;;;;;;1.80;1.40;;;;;;;;;;4981569;28;20341;-76
2022/05/05 12:17:45;;;;;;;2.10;1.40;;;;;;;;;;4959512;28;20221;-75
2022/05/05 12:20:12;;;;;;;2.33;1.45;;;;;;;;;;4958050;28;20218;-74
2022/05/05 12:22:39;;;;;;;3.40;1.40;;;;;;;;;;4985517;28;20224;-74
2022/05/05 12:25:09;;;;;;;1.50;1.40;;;;;;;;;;4946290;28;20233;-75
2022/05/05 12:27:34;;;;;;;3.63;1.70;;;;;;;;;;4985506;28;20707;-75
2022/05/05 12:30:03;;;;;;;2.00;1.45;;;;;;;;;;4979802;28;20226;-74
2022/05/05 12:32:31;;;;;;;2.10;1.58;;;;;;;;;;4949126;28;20288;-74
2022/05/05 12:35:17;;;;;;;2.92;1.60;;;;;;;;;;4967896;28;20321;-75
2022/05/05 12:37:47;;;;;;;2.75;1.67;;;;;;;;;;4966562;28;20225;-73
2022/05/05 12:40:15;;;;;;;2.58;1.27;;;;;;;;;;4956163;28;20268;-75
2022/05/05 12:42:48;;;;;;;2.67;1.38;;;;;;;;;;4956012;28;20240;-74
2022/05/05 12:45:26;;;;;;;3.30;1.48;;;;;;;;;;4967951;28;20212;-74
2022/05/05 12:47:53;;;;;;;2.78;1.35;;;;;;;;;;4959173;28;20226;-76
2022/05/05 12:50:26;;;;;;;2.25;1.40;;;;;;;;;;4972766;28;20268;-75
2022/05/05 13:01:26;;;;;;;2.63;1.40;;;;;;;;;;4982834;28;20233;-74
2022/05/05 13:03:54;;;;;;;3.35;1.45;;;;;;;;;;4956240;28;20232;-75
2022/05/05 13:06:24;;;;;;;2.53;1.65;;;;;;;;;;4964454;28;20218;-74
2022/05/05 13:08:53;;;;;;;5.47;1.70;;;;;;;;;;4957422;28;20234;-74
2022/05/05 13:11:19;;;;;;;2.97;1.50;;;;;;;;;;4965717;28;20232;-76
2022/05/05 13:13:47;;;;;;;2.10;1.25;;;;;;;;;;4928305;28;20520;-75
2022/05/05 13:16:13;;;;;;;2.83;1.52;;;;;;;;;;4968029;28;20280;-75
2022/05/05 13:18:38;;;;;;;3.50;1.50;;;;;;;;;;4960495;28;20229;-73
2022/05/05 13:21:04;;;;;;;2.70;1.60;;;;;;;;;;4983460;28;20237;-76
2022/05/05 13:23:31;;;;;;;2.10;1.25;;;;;;;;;;4981880;28;20236;-77
2022/05/05 13:25:57;;;;;;;2.92;1.40;;;;;;;;;;4957335;28;20722;-74
2022/05/05 13:28:23;;;;;;;2.63;1.42;;;;;;;;;;4965039;28;20225;-75
2022/05/05 13:30:51;;;;;;;2.20;1.50;;;;;;;;;;4958014;28;20229;-77
2022/05/05 13:33:17;;;;;;;3.25;1.40;;;;;;;;;;4961447;28;20885;-75
2022/05/05 13:35:42;;;;;;;2.28;1.50;;;;;;;;;;4967331;28;20269;-75
2022/05/05 13:38:08;;;;;;;3.58;1.50;;;;;;;;;;4978040;28;20309;-75
2022/05/05 13:40:34;;;;;;;2.85;1.50;;;;;;;;;;4944337;28;20218;-77
2022/05/05 13:43:03;;;;;;;2.90;1.52;;;;;;;;;;4950212;28;20233;-74
2022/05/05 13:45:34;;;;;;;2.28;1.38;;;;;;;;;;4969662;28;20224;-77
2022/05/05 13:48:00;;;;;;;2.67;1.60;;;;;;;;;;4972756;28;20238;-77
2022/05/05 13:50:25;;;;;;;1.83;1.30;;;;;;;;;;4957767;28;20254;-76
2022/05/05 13:52:54;;;;;;;1.85;1.42;;;;;;;;;;4942357;28;20239;-77
2022/05/05 13:55:19;;;;;;;1.92;1.60;;;;;;;;;;4971667;28;20226;-75
2022/05/05 13:57:45;;;;;;;2.53;1.60;;;;;;;;;;4955905;28;20622;-76
2022/05/05 14:00:14;;;;;;;3.33;1.30;;;;;;;;;;4936107;28;20229;-74
2022/05/05 14:02:42;;;;;;;3.85;1.50;;;;;;;;;;4973794;28;20225;-75
2022/05/05 14:05:10;;;;;;;2.58;1.40;;;;;;;;;;4954375;28;20293;-74
2022/05/05 14:13:06;;;;;;;2.08;1.30;;;;;;;;;;4969824;28;20671;-75
2022/05/05 14:15:31;;;;;;;4.60;1.67;;;;;;;;;;4964459;28;20293;-74
2022/05/05 14:17:59;;;;;;;1.92;1.17;;;;;;;;;;4963512;28;20591;-73
2022/05/05 14:20:29;;;;;;;2.17;1.40;;;;;;;;;;4966299;28;20675;-75
2022/05/05 14:22:54;;;;;;;2.80;1.38;;;;;;;;;;4975635;28;20716;-75
2022/05/05 14:25:25;;;;;;;3.83;1.35;;;;;;;;;;4965461;28;20652;-74
2022/05/05 14:27:54;;;;;;;2.20;1.40;;;;;;;;;;4941706;28;20229;-74
2022/05/05 14:30:19;;;;;;;2.15;1.30;;;;;;;;;;4982155;28;20251;-74
2022/05/05 14:32:46;;;;;;;1.92;1.40;;;;;;;;;;4953302;28;20235;-75
2022/05/05 14:35:14;;;;;;;1.70;1.30;;;;;;;;;;4956855;28;20225;-75
2022/05/05 14:37:39;;;;;;;1.50;1.10;;;;;;;;;;4956949;28;20233;-74
2022/05/05 14:40:06;;;;;;;1.60;1.00;;;;;;;;;;4963064;28;20237;-75
2022/05/05 14:42:31;;;;;;;3.15;1.25;;;;;;;;;;4968852;28;20637;-74
2022/05/05 14:44:57;;;;;;;3.13;1.38;;;;;;;;;;4923147;28;20221;-73
2022/05/05 14:47:22;;;;;;;1.92;1.15;;;;;;;;;;4975874;28;20363;-74
2022/05/05 14:49:50;;;;;;;1.50;1.33;;;;;;;;;;4978800;28;20229;-74
2022/05/05 14:52:16;;;;;;;3.35;1.40;;;;;;;;;;4938327;28;20218;-74
2022/05/05 14:54:44;;;;;;;3.28;1.65;;;;;;;;;;4940557;28;20288;-74
2022/05/05 14:57:13;;;;;;;2.67;1.58;;;;;;;;;;4952568;28;20213;-73
2022/05/05 14:59:41;;;;;;;2.25;1.35;;;;;;;;;;4955476;28;20289;-74
2022/05/05 15:02:08;;;;;;;2.28;1.42;;;;;;;;;;4934518;28;20775;-75
2022/05/05 15:04:35;;;;;;;2.33;1.42;;;;;;;;;;4954235;28;20222;-73
2022/05/05 15:07:04;;;;;;;3.25;1.30;;;;;;;;;;4972632;28;20320;-75
2022/05/05 15:09:29;;;;;;;2.53;1.38;;;;;;;;;;4971861;28;20241;-75
2022/05/05 15:11:57;;;;;;;1.55;0.95;;;;;;;;;;4957347;28;20645;-76
2022/05/05 15:14:26;;;;;;;2.85;1.35;;;;;;;;;;4982446;28;20241;-74
2022/05/05 15:16:52;;;;;;;2.05;1.20;;;;;;;;;;4973328;28;20225;-76
2022/05/05 15:19:18;;;;;;;1.23;1.08;;;;;;;;;;4974343;28;20225;-74
2022/05/05 15:21:43;;;;;;;1.30;1.15;;;;;;;;;;4971721;28;20256;-75
2022/05/05 15:24:13;;;;;;;3.25;1.45;;;;;;;;;;4946706;28;20221;-76
2022/05/05 15:26:43;;;;;;;2.53;1.30;;;;;;;;;;4957702;28;20237;-76
2022/05/05 15:29:11;;;;;;;1.90;1.30;;;;;;;;;;4961333;28;20229;-76
2022/05/05 15:31:36;;;;;;;2.60;1.60;;;;;;;;;;4931878;28;20228;-76
2022/05/05 15:34:04;;;;;;;2.83;1.58;;;;;;;;;;4965382;28;20229;-76
2022/05/05 15:36:30;;;;;;;3.45;1.50;;;;;;;;;;4970710;28;20227;-75
2022/05/05 15:39:00;;;;;;;2.17;1.23;;;;;;;;;;4971970;28;20226;-75
2022/05/05 15:41:30;;;;;;;3.38;1.42;;;;;;;;;;4981859;28;20273;-76
2022/05/05 15:43:57;;;;;;;2.33;1.55;;;;;;;;;;4969894;28;20233;-76
2022/05/05 15:46:23;;;;;;;2.70;1.40;;;;;;;;;;4951222;28;20225;-77